sensor_id;sensor_type;location;lat;lon;timestamp;pressure;altitude;pressure_sealevel;temperature;humidity
28606;BME280;46498;49.968;7.754;2023-05-27T00:01:26;-18662.00;;;12.05;59.89
28606;BME280;46498;49.968;7.754;2023-05-27T00:06:27;-18662.00;;;12.07;60.07
28606;BME280;46498;49.968;7.754;2023-05-27T00:11:28;-18658.00;;;11.93;60.56
28606;BME280;46498;49.968;7.754;2023-05-27T00:16:29;-18657.00;;;11.91;61.24
28606;BME280;46498;49.968;7.754;2023-05-27T00:21:30;-18656.00;;;11.87;61.29
28606;BME280;46498;49.968;7.754;2023-05-27T00:26:30;-18653.00;;;11.78;61.81
28606;BME280;46498;49.968;7.754;2023-05-27T00:31:31;-18653.00;;;11.79;62.00
28606;BME280;46498;49.968;7.754;2023-05-27T00:36:33;-18652.00;;;11.73;62.51
28606;BME280;46498;49.968;7.754;2023-05-27T00:41:34;-18649.00;;;11.66;62.53
28606;BME280;46498;49.968;7.754;2023-05-27T00:46:35;-18647.00;;;11.59;62.78
28606;BME280;46498;49.968;7.754;2023-05-27T00:51:36;-18647.00;;;11.60;62.60
28606;BME280;46498;49.968;7.754;2023-05-27T00:56:37;-18646.00;;;11.56;62.80
28606;BME280;46498;49.968;7.754;2023-05-27T01:01:38;-18645.00;;;11.52;63.08
28606;BME280;46498;49.968;7.754;2023-05-27T01:07:08;-18640.00;;;11.39;63.72
28606;BME280;46498;49.968;7.754;2023-05-27T01:12:19;-18633.00;;;11.16;65.19
28606;BME280;46498;49.968;7.754;2023-05-27T01:17:26;-18637.00;;;11.28;64.77
28606;BME280;46498;49.968;7.754;2023-05-27T01:22:29;-18635.00;;;11.22;64.57
28606;BME280;46498;49.968;7.754;2023-05-27T01:27:30;-18635.00;;;11.22;64.78
28606;BME280;46498;49.968;7.754;2023-05-27T01:32:41;-18630.00;;;11.06;66.03
28606;BME280;46498;49.968;7.754;2023-05-27T01:37:45;-18634.00;;;11.17;65.84
28606;BME280;46498;49.968;7.754;2023-05-27T01:42:47;-18637.00;;;11.27;65.29
28606;BME280;46498;49.968;7.754;2023-05-27T01:47:50;-18634.00;;;11.18;66.38
28606;BME280;46498;49.968;7.754;2023-05-27T01:52:51;-18632.00;;;11.13;66.56
28606;BME280;46498;49.968;7.754;2023-05-27T01:57:52;-18632.00;;;11.13;66.51
28606;BME280;46498;49.968;7.754;2023-05-27T02:02:53;-18637.00;;;11.26;65.92
28606;BME280;46498;49.968;7.754;2023-05-27T02:07:55;-18630.00;;;11.07;66.99
28606;BME280;46498;49.968;7.754;2023-05-27T02:12:56;-18632.00;;;11.13;66.59
28606;BME280;46498;49.968;7.754;2023-05-27T02:17:56;-18632.00;;;11.11;66.49
28606;BME280;46498;49.968;7.754;2023-05-27T02:22:58;-18629.00;;;11.03;67.28
28606;BME280;46498;49.968;7.754;2023-05-27T02:27:58;-18625.00;;;10.89;68.68
28606;BME280;46498;49.968;7.754;2023-05-27T02:33:03;-18621.00;;;10.78;68.55
28606;BME280;46498;49.968;7.754;2023-05-27T02:38:04;-18621.00;;;10.79;68.97
28606;BME280;46498;49.968;7.754;2023-05-27T02:43:05;-18618.00;;;10.69;70.11
28606;BME280;46498;49.968;7.754;2023-05-27T02:48:07;-18618.00;;;10.67;68.92
28606;BME280;46498;49.968;7.754;2023-05-27T02:53:08;-18611.00;;;10.46;70.72
28606;BME280;46498;49.968;7.754;2023-05-27T02:58:09;-18607.00;;;10.34;71.68
28606;BME280;46498;49.968;7.754;2023-05-27T03:03:10;-18607.00;;;10.35;69.67
28606;BME280;46498;49.968;7.754;2023-05-27T03:08:11;-18605.00;;;10.28;71.35
28606;BME280;46498;49.968;7.754;2023-05-27T03:13:13;-18605.00;;;10.28;69.18
28606;BME280;46498;49.968;7.754;2023-05-27T03:18:14;-18607.00;;;10.33;67.98
28606;BME280;46498;49.968;7.754;2023-05-27T03:23:15;-18607.00;;;10.33;66.77
28606;BME280;46498;49.968;7.754;2023-05-27T03:28:16;-18604.00;;;10.24;67.04
28606;BME280;46498;49.968;7.754;2023-05-27T03:33:17;-18612.00;;;10.49;64.19
28606;BME280;46498;49.968;7.754;2023-05-27T03:38:18;-18611.00;;;10.46;63.84
28606;BME280;46498;49.968;7.754;2023-05-27T03:43:19;-18613.00;;;10.52;63.13
28606;BME280;46498;49.968;7.754;2023-05-27T03:48:21;-18613.00;;;10.51;64.81
28606;BME280;46498;49.968;7.754;2023-05-27T03:53:22;-18608.00;;;10.38;64.18
28606;BME280;46498;49.968;7.754;2023-05-27T03:58:22;-18613.00;;;10.52;62.77
28606;BME280;46498;49.968;7.754;2023-05-27T04:03:23;-18614.00;;;10.57;61.40
28606;BME280;46498;49.968;7.754;2023-05-27T04:08:26;-18616.00;;;10.61;61.63
28606;BME280;46498;49.968;7.754;2023-05-27T04:13:28;-18620.00;;;10.75;60.09
28606;BME280;46498;49.968;7.754;2023-05-27T04:18:29;-18625.00;;;10.89;59.45
28606;BME280;46498;49.968;7.754;2023-05-27T04:23:30;-18626.00;;;10.92;58.99
28606;BME280;46498;49.968;7.754;2023-05-27T04:28:31;-18626.00;;;10.92;58.85
28606;BME280;46498;49.968;7.754;2023-05-27T04:33:33;-18624.00;;;10.88;58.74
28606;BME280;46498;49.968;7.754;2023-05-27T04:38:34;-18632.00;;;11.12;58.63
28606;BME280;46498;49.968;7.754;2023-05-27T04:43:38;-18635.00;;;11.22;59.45
28606;BME280;46498;49.968;7.754;2023-05-27T04:48:39;-18632.00;;;11.11;62.06
28606;BME280;46498;49.968;7.754;2023-05-27T04:53:40;-18629.00;;;11.02;63.47
28606;BME280;46498;49.968;7.754;2023-05-27T04:58:42;-18638.00;;;11.29;64.29
28606;BME280;46498;49.968;7.754;2023-05-27T05:03:45;-18645.00;;;11.52;59.69
28606;BME280;46498;49.968;7.754;2023-05-27T05:09:19;-18652.00;;;11.75;59.20
28606;BME280;46498;49.968;7.754;2023-05-27T05:14:21;-18649.00;;;11.66;57.16
28606;BME280;46498;49.968;7.754;2023-05-27T05:19:22;-18656.00;;;11.86;59.99
28606;BME280;46498;49.968;7.754;2023-05-27T05:24:23;-18662.00;;;12.07;61.57
28606;BME280;46498;49.968;7.754;2023-05-27T05:29:25;-18665.00;;;12.16;61.58
28606;BME280;46498;49.968;7.754;2023-05-27T05:34:26;-18666.00;;;12.19;59.03
28606;BME280;46498;49.968;7.754;2023-05-27T05:39:28;-18673.00;;;12.41;62.25
28606;BME280;46498;49.968;7.754;2023-05-27T05:44:30;-18684.00;;;12.75;59.20
28606;BME280;46498;49.968;7.754;2023-05-27T05:49:32;-18681.00;;;12.67;55.63
28606;BME280;46498;49.968;7.754;2023-05-27T05:54:33;-18689.00;;;12.90;56.30
28606;BME280;46498;49.968;7.754;2023-05-27T05:59:35;-18697.00;;;13.14;56.69
28606;BME280;46498;49.968;7.754;2023-05-27T06:04:36;-18703.00;;;13.34;53.84
28606;BME280;46498;49.968;7.754;2023-05-27T06:09:38;-18701.00;;;13.28;54.03
28606;BME280;46498;49.968;7.754;2023-05-27T06:14:42;-18701.00;;;13.27;55.28
28606;BME280;46498;49.968;7.754;2023-05-27T06:19:44;-18684.00;;;12.76;54.54
28606;BME280;46498;49.968;7.754;2023-05-27T06:24:45;-18700.00;;;13.25;55.09
28606;BME280;46498;49.968;7.754;2023-05-27T06:29:51;-18706.00;;;13.44;54.27
28606;BME280;46498;49.968;7.754;2023-05-27T06:35:01;-18694.00;;;13.08;55.30
28606;BME280;46498;49.968;7.754;2023-05-27T06:40:04;-18700.00;;;13.26;57.07
28606;BME280;46498;49.968;7.754;2023-05-27T06:45:07;-18694.00;;;13.07;57.64
28606;BME280;46498;49.968;7.754;2023-05-27T06:50:10;-18699.00;;;13.22;56.53
28606;BME280;46498;49.968;7.754;2023-05-27T06:55:11;-18704.00;;;13.38;55.46
28606;BME280;46498;49.968;7.754;2023-05-27T07:00:31;-18703.00;;;13.34;56.10
28606;BME280;46498;49.968;7.754;2023-05-27T07:05:47;-18712.00;;;13.62;56.38
28606;BME280;46498;49.968;7.754;2023-05-27T07:10:49;-18724.00;;;14.00;58.15
28606;BME280;46498;49.968;7.754;2023-05-27T07:15:50;-18720.00;;;13.89;55.60
28606;BME280;46498;49.968;7.754;2023-05-27T07:20:52;-18727.00;;;14.11;55.38
28606;BME280;46498;49.968;7.754;2023-05-27T07:25:53;-18719.00;;;13.87;54.08
28606;BME280;46498;49.968;7.754;2023-05-27T07:30:56;-18733.00;;;14.30;56.90
28606;BME280;46498;49.968;7.754;2023-05-27T07:35:58;-18734.00;;;14.32;52.24
28606;BME280;46498;49.968;7.754;2023-05-27T07:40:59;-18732.00;;;14.27;53.79
28606;BME280;46498;49.968;7.754;2023-05-27T07:46:03;-18741.00;;;14.54;54.59
28606;BME280;46498;49.968;7.754;2023-05-27T07:51:04;-18743.00;;;14.62;52.32
28606;BME280;46498;49.968;7.754;2023-05-27T07:56:06;-18743.00;;;14.62;54.66
28606;BME280;46498;49.968;7.754;2023-05-27T08:01:07;-18748.00;;;14.77;55.09
28606;BME280;46498;49.968;7.754;2023-05-27T08:06:08;-18763.00;;;15.24;52.34
28606;BME280;46498;49.968;7.754;2023-05-27T08:11:54;-18755.00;;;14.97;52.26
28606;BME280;46498;49.968;7.754;2023-05-27T08:18:17;-18761.00;;;15.18;52.65
28606;BME280;46498;49.968;7.754;2023-05-27T08:23:58;-18781.00;;;15.80;52.96
28606;BME280;46498;49.968;7.754;2023-05-27T08:29:07;-18758.00;;;15.09;50.97
28606;BME280;46498;49.968;7.754;2023-05-27T08:34:16;-18772.00;;;15.52;49.87
28606;BME280;46498;49.968;7.754;2023-05-27T08:39:17;-18777.00;;;15.69;48.79
28606;BME280;46498;49.968;7.754;2023-05-27T08:44:26;-18762.00;;;15.21;49.86
28606;BME280;46498;49.968;7.754;2023-05-27T08:49:39;-18773.00;;;15.53;50.92
28606;BME280;46498;49.968;7.754;2023-05-27T08:54:41;-18780.00;;;15.76;49.72
28606;BME280;46498;49.968;7.754;2023-05-27T08:59:42;-18780.00;;;15.76;50.00
28606;BME280;46498;49.968;7.754;2023-05-27T09:04:45;-18783.00;;;15.87;49.48
28606;BME280;46498;49.968;7.754;2023-05-27T09:09:56;-18784.00;;;15.88;49.14
28606;BME280;46498;49.968;7.754;2023-05-27T09:14:58;-18785.00;;;15.94;47.71
28606;BME280;46498;49.968;7.754;2023-05-27T09:19:59;-18791.00;;;16.12;49.22
28606;BME280;46498;49.968;7.754;2023-05-27T09:25:00;-18801.00;;;16.44;48.09
28606;BME280;46498;49.968;7.754;2023-05-27T09:30:08;-18807.00;;;16.62;48.31
28606;BME280;46498;49.968;7.754;2023-05-27T09:35:11;-18809.00;;;16.67;46.54
28606;BME280;46498;49.968;7.754;2023-05-27T09:40:12;-18802.00;;;16.45;47.73
28606;BME280;46498;49.968;7.754;2023-05-27T09:45:20;-18806.00;;;16.58;47.08
28606;BME280;46498;49.968;7.754;2023-05-27T09:50:21;-18817.00;;;16.94;46.93
28606;BME280;46498;49.968;7.754;2023-05-27T09:55:22;-18824.00;;;17.16;45.19
28606;BME280;46498;49.968;7.754;2023-05-27T10:00:23;-18836.00;;;17.52;47.46
28606;BME280;46498;49.968;7.754;2023-05-27T10:05:26;-18822.00;;;17.08;45.25
28606;BME280;46498;49.968;7.754;2023-05-27T10:10:28;-18841.00;;;17.70;45.89
28606;BME280;46498;49.968;7.754;2023-05-27T10:15:31;-18850.00;;;17.98;46.44
28606;BME280;46498;49.968;7.754;2023-05-27T10:20:34;-18863.00;;;18.38;44.95
28606;BME280;46498;49.968;7.754;2023-05-27T10:25:36;-18848.00;;;17.91;43.26
28606;BME280;46498;49.968;7.754;2023-05-27T10:30:44;-18867.00;;;18.51;44.91
28606;BME280;46498;49.968;7.754;2023-05-27T10:35:49;-18852.00;;;18.03;43.69
28606;BME280;46498;49.968;7.754;2023-05-27T10:40:59;-18848.00;;;17.90;43.82
28606;BME280;46498;49.968;7.754;2023-05-27T10:46:06;-18863.00;;;18.37;43.05
28606;BME280;46498;49.968;7.754;2023-05-27T10:51:08;-18864.00;;;18.40;43.41
28606;BME280;46498;49.968;7.754;2023-05-27T10:56:09;-18862.00;;;18.36;43.73
28606;BME280;46498;49.968;7.754;2023-05-27T11:01:11;-18872.00;;;18.66;44.35
28606;BME280;46498;49.968;7.754;2023-05-27T11:06:13;-18878.00;;;18.86;44.33
28606;BME280;46498;49.968;7.754;2023-05-27T11:11:16;-18880.00;;;18.90;44.10
28606;BME280;46498;49.968;7.754;2023-05-27T11:16:16;-18879.00;;;18.89;43.82
28606;BME280;46498;49.968;7.754;2023-05-27T11:21:18;-18880.00;;;18.92;43.23
28606;BME280;46498;49.968;7.754;2023-05-27T11:26:20;-18875.00;;;18.75;42.95
28606;BME280;46498;49.968;7.754;2023-05-27T11:31:29;-18895.00;;;19.37;42.19
28606;BME280;46498;49.968;7.754;2023-05-27T11:36:30;-18868.00;;;18.53;42.76
28606;BME280;46498;49.968;7.754;2023-05-27T11:41:32;-18876.00;;;18.80;41.27
28606;BME280;46498;49.968;7.754;2023-05-27T11:47:19;-18875.00;;;18.77;41.94
28606;BME280;46498;49.968;7.754;2023-05-27T11:52:24;-18873.00;;;18.70;39.63
28606;BME280;46498;49.968;7.754;2023-05-27T11:57:26;-18880.00;;;18.91;39.87
28606;BME280;46498;49.968;7.754;2023-05-27T12:02:28;-18887.00;;;19.13;38.13
28606;BME280;46498;49.968;7.754;2023-05-27T12:07:29;-18891.00;;;19.25;40.27
28606;BME280;46498;49.968;7.754;2023-05-27T12:12:30;-18897.00;;;19.45;37.45
28606;BME280;46498;49.968;7.754;2023-05-27T12:17:34;-18889.00;;;19.21;41.58
28606;BME280;46498;49.968;7.754;2023-05-27T12:22:35;-18885.00;;;19.07;41.88
28606;BME280;46498;49.968;7.754;2023-05-27T12:27:36;-18889.00;;;19.19;40.02
28606;BME280;46498;49.968;7.754;2023-05-27T12:32:37;-18895.00;;;19.39;39.92
28606;BME280;46498;49.968;7.754;2023-05-27T12:37:41;-18900.00;;;19.53;40.26
28606;BME280;46498;49.968;7.754;2023-05-27T12:42:42;-18910.00;;;19.86;39.07
28606;BME280;46498;49.968;7.754;2023-05-27T12:47:43;-18929.00;;;20.46;40.67
28606;BME280;46498;49.968;7.754;2023-05-27T12:52:44;-18931.00;;;20.53;39.16
28606;BME280;46498;49.968;7.754;2023-05-27T12:57:48;-18910.00;;;19.86;39.81
28606;BME280;46498;49.968;7.754;2023-05-27T13:02:51;-18941.00;;;20.84;38.25
28606;BME280;46498;49.968;7.754;2023-05-27T13:08:03;-18930.00;;;20.50;36.92
28606;BME280;46498;49.968;7.754;2023-05-27T13:13:05;-18933.00;;;20.58;36.17
28606;BME280;46498;49.968;7.754;2023-05-27T13:18:06;-18922.00;;;20.25;38.73
28606;BME280;46498;49.968;7.754;2023-05-27T13:23:12;-18925.00;;;20.33;38.74
28606;BME280;46498;49.968;7.754;2023-05-27T13:28:13;-18942.00;;;20.87;39.16
28606;BME280;46498;49.968;7.754;2023-05-27T13:33:14;-18948.00;;;21.04;39.48
28606;BME280;46498;49.968;7.754;2023-05-27T13:38:22;-18933.00;;;20.59;40.08
28606;BME280;46498;49.968;7.754;2023-05-27T13:43:26;-18939.00;;;20.78;38.68
28606;BME280;46498;49.968;7.754;2023-05-27T13:48:27;-18932.00;;;20.55;40.04
28606;BME280;46498;49.968;7.754;2023-05-27T13:53:28;-18921.00;;;20.19;38.56
28606;BME280;46498;49.968;7.754;2023-05-27T13:58:29;-18913.00;;;19.97;38.60
28606;BME280;46498;49.968;7.754;2023-05-27T14:03:30;-18938.00;;;20.75;40.00
28606;BME280;46498;49.968;7.754;2023-05-27T14:08:31;-18925.00;;;20.32;37.32
28606;BME280;46498;49.968;7.754;2023-05-27T14:13:32;-18927.00;;;20.39;39.00
28606;BME280;46498;49.968;7.754;2023-05-27T14:18:33;-18921.00;;;20.20;39.54
28606;BME280;46498;49.968;7.754;2023-05-27T14:23:35;-18920.00;;;20.17;37.96
28606;BME280;46498;49.968;7.754;2023-05-27T14:28:36;-18931.00;;;20.52;39.31
28606;BME280;46498;49.968;7.754;2023-05-27T14:33:37;-18933.00;;;20.58;38.01
28606;BME280;46498;49.968;7.754;2023-05-27T14:38:39;-18931.00;;;20.53;37.25
28606;BME280;46498;49.968;7.754;2023-05-27T14:43:39;-18933.00;;;20.58;37.34
28606;BME280;46498;49.968;7.754;2023-05-27T14:48:41;-18932.00;;;20.54;36.68
28606;BME280;46498;49.968;7.754;2023-05-27T14:53:41;-18946.00;;;20.99;39.55
28606;BME280;46498;49.968;7.754;2023-05-27T14:58:42;-18935.00;;;20.63;38.41
28606;BME280;46498;49.968;7.754;2023-05-27T15:03:43;-18938.00;;;20.75;37.03
28606;BME280;46498;49.968;7.754;2023-05-27T15:08:44;-18942.00;;;20.88;37.69
28606;BME280;46498;49.968;7.754;2023-05-27T15:13:45;-18937.00;;;20.70;36.75
28606;BME280;46498;49.968;7.754;2023-05-27T15:18:46;-18926.00;;;20.35;39.04
28606;BME280;46498;49.968;7.754;2023-05-27T15:23:47;-18940.00;;;20.80;38.06
28606;BME280;46498;49.968;7.754;2023-05-27T15:28:48;-18942.00;;;20.85;38.98
28606;BME280;46498;49.968;7.754;2023-05-27T15:33:49;-18932.00;;;20.54;39.40
28606;BME280;46498;49.968;7.754;2023-05-27T15:38:51;-18934.00;;;20.62;39.03
28606;BME280;46498;49.968;7.754;2023-05-27T15:43:52;-18955.00;;;21.26;39.03
28606;BME280;46498;49.968;7.754;2023-05-27T15:48:53;-18956.00;;;21.29;36.70
28606;BME280;46498;49.968;7.754;2023-05-27T15:53:55;-18937.00;;;20.70;37.88
28606;BME280;46498;49.968;7.754;2023-05-27T15:58:56;-18934.00;;;20.63;37.67
28606;BME280;46498;49.968;7.754;2023-05-27T16:03:57;-18938.00;;;20.73;38.07
28606;BME280;46498;49.968;7.754;2023-05-27T16:08:59;-18938.00;;;20.73;38.62
28606;BME280;46498;49.968;7.754;2023-05-27T16:14:00;-18933.00;;;20.59;37.14
28606;BME280;46498;49.968;7.754;2023-05-27T16:19:01;-18927.00;;;20.41;37.63
28606;BME280;46498;49.968;7.754;2023-05-27T16:24:02;-18924.00;;;20.31;37.75
28606;BME280;46498;49.968;7.754;2023-05-27T16:29:09;-18929.00;;;20.47;37.69
28606;BME280;46498;49.968;7.754;2023-05-27T16:34:10;-18932.00;;;20.56;39.57
28606;BME280;46498;49.968;7.754;2023-05-27T16:39:11;-18925.00;;;20.34;36.72
28606;BME280;46498;49.968;7.754;2023-05-27T16:44:12;-18935.00;;;20.65;38.58
28606;BME280;46498;49.968;7.754;2023-05-27T16:49:14;-18922.00;;;20.25;36.59
28606;BME280;46498;49.968;7.754;2023-05-27T16:54:14;-18917.00;;;20.08;37.52
28606;BME280;46498;49.968;7.754;2023-05-27T16:59:15;-18918.00;;;20.11;38.56
28606;BME280;46498;49.968;7.754;2023-05-27T17:04:16;-18915.00;;;20.02;37.70
28606;BME280;46498;49.968;7.754;2023-05-27T17:09:17;-18912.00;;;19.93;37.91
28606;BME280;46498;49.968;7.754;2023-05-27T17:14:18;-18911.00;;;19.88;36.70
28606;BME280;46498;49.968;7.754;2023-05-27T17:19:19;-18911.00;;;19.88;38.15
28606;BME280;46498;49.968;7.754;2023-05-27T17:24:21;-18915.00;;;20.01;37.52
28606;BME280;46498;49.968;7.754;2023-05-27T17:29:22;-18914.00;;;19.98;38.25
28606;BME280;46498;49.968;7.754;2023-05-27T17:34:22;-18910.00;;;19.84;39.51
28606;BME280;46498;49.968;7.754;2023-05-27T17:39:25;-18907.00;;;19.77;38.48
28606;BME280;46498;49.968;7.754;2023-05-27T17:44:26;-18913.00;;;19.95;38.83
28606;BME280;46498;49.968;7.754;2023-05-27T17:49:27;-18910.00;;;19.87;38.33
28606;BME280;46498;49.968;7.754;2023-05-27T17:54:28;-18905.00;;;19.71;38.57
28606;BME280;46498;49.968;7.754;2023-05-27T17:59:29;-18902.00;;;19.62;38.77
28606;BME280;46498;49.968;7.754;2023-05-27T18:04:30;-18902.00;;;19.60;38.59
28606;BME280;46498;49.968;7.754;2023-05-27T18:09:30;-18896.00;;;19.41;39.06
28606;BME280;46498;49.968;7.754;2023-05-27T18:14:32;-18894.00;;;19.36;38.58
28606;BME280;46498;49.968;7.754;2023-05-27T18:19:33;-18893.00;;;19.33;41.13
28606;BME280;46498;49.968;7.754;2023-05-27T18:24:34;-18890.00;;;19.21;40.46
28606;BME280;46498;49.968;7.754;2023-05-27T18:29:35;-18884.00;;;19.04;41.37
28606;BME280;46498;49.968;7.754;2023-05-27T18:34:36;-18875.00;;;18.75;42.54
28606;BME280;46498;49.968;7.754;2023-05-27T18:39:36;-18867.00;;;18.51;43.30
28606;BME280;46498;49.968;7.754;2023-05-27T18:44:37;-18863.00;;;18.37;43.95
28606;BME280;46498;49.968;7.754;2023-05-27T18:49:38;-18861.00;;;18.31;44.75
28606;BME280;46498;49.968;7.754;2023-05-27T18:54:39;-18853.00;;;18.08;44.66
28606;BME280;46498;49.968;7.754;2023-05-27T18:59:40;-18845.00;;;17.81;44.85
28606;BME280;46498;49.968;7.754;2023-05-27T19:04:41;-18838.00;;;17.59;45.20
28606;BME280;46498;49.968;7.754;2023-05-27T19:09:42;-18835.00;;;17.49;45.92
28606;BME280;46498;49.968;7.754;2023-05-27T19:14:44;-18827.00;;;17.23;46.16
28606;BME280;46498;49.968;7.754;2023-05-27T19:19:45;-18817.00;;;16.93;46.84
28606;BME280;46498;49.968;7.754;2023-05-27T19:24:47;-18807.00;;;16.63;47.46
28606;BME280;46498;49.968;7.754;2023-05-27T19:29:48;-18802.00;;;16.45;48.47
28606;BME280;46498;49.968;7.754;2023-05-27T19:34:49;-18797.00;;;16.29;48.01
28606;BME280;46498;49.968;7.754;2023-05-27T19:39:50;-18798.00;;;16.35;47.10
28606;BME280;46498;49.968;7.754;2023-05-27T19:44:51;-18798.00;;;16.34;47.82
28606;BME280;46498;49.968;7.754;2023-05-27T19:49:53;-18796.00;;;16.26;47.48
28606;BME280;46498;49.968;7.754;2023-05-27T19:54:53;-18800.00;;;16.40;47.02
28606;BME280;46498;49.968;7.754;2023-05-27T19:59:54;-18799.00;;;16.36;46.84
28606;BME280;46498;49.968;7.754;2023-05-27T20:04:55;-18797.00;;;16.31;46.44
28606;BME280;46498;49.968;7.754;2023-05-27T20:09:56;-18796.00;;;16.27;46.83
28606;BME280;46498;49.968;7.754;2023-05-27T20:14:57;-18794.00;;;16.20;46.19
28606;BME280;46498;49.968;7.754;2023-05-27T20:19:58;-18795.00;;;16.24;46.33
28606;BME280;46498;49.968;7.754;2023-05-27T20:25:00;-18794.00;;;16.19;46.01
28606;BME280;46498;49.968;7.754;2023-05-27T20:30:01;-18793.00;;;16.16;45.47
28606;BME280;46498;49.968;7.754;2023-05-27T20:35:02;-18793.00;;;16.17;45.52
28606;BME280;46498;49.968;7.754;2023-05-27T20:40:05;-18792.00;;;16.15;45.18
28606;BME280;46498;49.968;7.754;2023-05-27T20:45:08;-18793.00;;;16.17;45.47
28606;BME280;46498;49.968;7.754;2023-05-27T20:50:10;-18795.00;;;16.24;45.20
28606;BME280;46498;49.968;7.754;2023-05-27T20:55:11;-18793.00;;;16.18;45.61
28606;BME280;46498;49.968;7.754;2023-05-27T21:00:13;-18793.00;;;16.16;45.94
28606;BME280;46498;49.968;7.754;2023-05-27T21:05:14;-18790.00;;;16.07;46.55
28606;BME280;46498;49.968;7.754;2023-05-27T21:10:15;-18789.00;;;16.06;46.67
28606;BME280;46498;49.968;7.754;2023-05-27T21:15:16;-18783.00;;;15.87;47.26
28606;BME280;46498;49.968;7.754;2023-05-27T21:20:17;-18781.00;;;15.81;47.71
28606;BME280;46498;49.968;7.754;2023-05-27T21:25:18;-18780.00;;;15.78;48.77
28606;BME280;46498;49.968;7.754;2023-05-27T21:30:19;-18780.00;;;15.76;49.55
28606;BME280;46498;49.968;7.754;2023-05-27T21:35:20;-18780.00;;;15.76;50.42
28606;BME280;46498;49.968;7.754;2023-05-27T21:40:21;-18780.00;;;15.76;50.76
28606;BME280;46498;49.968;7.754;2023-05-27T21:45:22;-18777.00;;;15.67;51.30
28606;BME280;46498;49.968;7.754;2023-05-27T21:50:23;-18774.00;;;15.59;52.06
28606;BME280;46498;49.968;7.754;2023-05-27T21:55:24;-18773.00;;;15.53;52.36
28606;BME280;46498;49.968;7.754;2023-05-27T22:00:25;-18773.00;;;15.54;52.45
28606;BME280;46498;49.968;7.754;2023-05-27T22:05:26;-18769.00;;;15.41;52.76
28606;BME280;46498;49.968;7.754;2023-05-27T22:10:27;-18771.00;;;15.47;52.72
28606;BME280;46498;49.968;7.754;2023-05-27T22:15:27;-18769.00;;;15.41;53.03
28606;BME280;46498;49.968;7.754;2023-05-27T22:20:28;-18766.00;;;15.34;53.01
28606;BME280;46498;49.968;7.754;2023-05-27T22:25:29;-18763.00;;;15.23;53.74
28606;BME280;46498;49.968;7.754;2023-05-27T22:30:32;-18756.00;;;15.03;55.07
28606;BME280;46498;49.968;7.754;2023-05-27T22:35:33;-18751.00;;;14.86;55.78
28606;BME280;46498;49.968;7.754;2023-05-27T22:40:35;-18745.00;;;14.67;56.70
28606;BME280;46498;49.968;7.754;2023-05-27T22:45:36;-18742.00;;;14.57;57.22
28606;BME280;46498;49.968;7.754;2023-05-27T22:50:37;-18739.00;;;14.47;58.23
28606;BME280;46498;49.968;7.754;2023-05-27T22:55:37;-18730.00;;;14.20;60.33
28606;BME280;46498;49.968;7.754;2023-05-27T23:00:38;-18725.00;;;14.04;61.87
28606;BME280;46498;49.968;7.754;2023-05-27T23:05:39;-18719.00;;;13.87;63.31
28606;BME280;46498;49.968;7.754;2023-05-27T23:10:40;-18724.00;;;14.00;62.64
28606;BME280;46498;49.968;7.754;2023-05-27T23:15:42;-18715.00;;;13.72;64.02
28606;BME280;46498;49.968;7.754;2023-05-27T23:20:45;-18711.00;;;13.61;65.40
28606;BME280;46498;49.968;7.754;2023-05-27T23:25:46;-18704.00;;;13.39;66.97
28606;BME280;46498;49.968;7.754;2023-05-27T23:30:46;-18689.00;;;12.92;69.72
28606;BME280;46498;49.968;7.754;2023-05-27T23:35:48;-18691.00;;;12.98;69.75
28606;BME280;46498;49.968;7.754;2023-05-27T23:40:49;-18687.00;;;12.84;71.59
28606;BME280;46498;49.968;7.754;2023-05-27T23:45:51;-18682.00;;;12.69;72.93
28606;BME280;46498;49.968;7.754;2023-05-27T23:50:52;-18682.00;;;12.69;73.09
28606;BME280;46498;49.968;7.754;2023-05-27T23:55:53;-18686.00;;;12.80;71.08
